sensor_id;sensor_type;location;lat;lon;timestamp;P1;durP1;ratioP1;P2;durP2;ratioP2
44646;SDS011;56315;-33.902;151.160;2022-08-03T00:01:06;2.15;;;0.60;;
44646;SDS011;56315;-33.902;151.160;2022-08-03T00:03:33;3.53;;;0.80;;
44646;SDS011;56315;-33.902;151.160;2022-08-03T00:06:01;2.65;;;0.50;;
44646;SDS011;56315;-33.902;151.160;2022-08-03T00:08:28;4.97;;;0.90;;
44646;SDS011;56315;-33.902;151.160;2022-08-03T00:10:56;2.00;;;0.73;;
44646;SDS011;56315;-33.902;151.160;2022-08-03T00:13:23;0.95;;;0.50;;
44646;SDS011;56315;-33.902;151.160;2022-08-03T00:15:51;3.97;;;1.00;;
44646;SDS011;56315;-33.902;151.160;2022-08-03T00:18:19;2.70;;;0.75;;
44646;SDS011;56315;-33.902;151.160;2022-08-03T00:20:46;2.65;;;0.77;;
44646;SDS011;56315;-33.902;151.160;2022-08-03T00:23:13;6.20;;;0.85;;
44646;SDS011;56315;-33.902;151.160;2022-08-03T00:25:41;4.65;;;1.00;;
44646;SDS011;56315;-33.902;151.160;2022-08-03T00:28:08;5.97;;;1.20;;
44646;SDS011;56315;-33.902;151.160;2022-08-03T00:30:36;5.63;;;1.25;;
44646;SDS011;56315;-33.902;151.160;2022-08-03T00:33:03;5.00;;;0.90;;
44646;SDS011;56315;-33.902;151.160;2022-08-03T00:35:31;4.03;;;0.80;;
44646;SDS011;56315;-33.902;151.160;2022-08-03T00:37:58;2.53;;;0.82;;
44646;SDS011;56315;-33.902;151.160;2022-08-03T00:40:25;4.20;;;1.20;;
44646;SDS011;56315;-33.902;151.160;2022-08-03T00:45:28;3.47;;;0.90;;
44646;SDS011;56315;-33.902;151.160;2022-08-03T00:47:57;2.22;;;0.70;;
44646;SDS011;56315;-33.902;151.160;2022-08-03T00:50:27;1.88;;;0.70;;
44646;SDS011;56315;-33.902;151.160;2022-08-03T00:52:56;2.08;;;0.43;;
44646;SDS011;56315;-33.902;151.160;2022-08-03T00:55:24;2.45;;;0.75;;
44646;SDS011;56315;-33.902;151.160;2022-08-03T00:57:52;4.60;;;0.45;;
44646;SDS011;56315;-33.902;151.160;2022-08-03T01:00:22;1.60;;;0.68;;
44646;SDS011;56315;-33.902;151.160;2022-08-03T01:02:51;1.98;;;1.02;;
44646;SDS011;56315;-33.902;151.160;2022-08-03T01:05:19;1.75;;;0.52;;
44646;SDS011;56315;-33.902;151.160;2022-08-03T01:13:21;1.30;;;0.60;;
44646;SDS011;56315;-33.902;151.160;2022-08-03T01:16:07;3.15;;;0.70;;
44646;SDS011;56315;-33.902;151.160;2022-08-03T01:21:33;2.15;;;1.10;;
44646;SDS011;56315;-33.902;151.160;2022-08-03T01:24:30;5.10;;;1.00;;
44646;SDS011;56315;-33.902;151.160;2022-08-03T01:27:11;2.20;;;0.88;;
44646;SDS011;56315;-33.902;151.160;2022-08-03T01:29:51;1.65;;;0.70;;
44646;SDS011;56315;-33.902;151.160;2022-08-03T01:38:31;2.00;;;0.60;;
44646;SDS011;56315;-33.902;151.160;2022-08-03T01:41:02;5.22;;;0.85;;
44646;SDS011;56315;-33.902;151.160;2022-08-03T01:43:43;1.80;;;0.52;;
44646;SDS011;56315;-33.902;151.160;2022-08-03T01:46:16;2.33;;;0.52;;
44646;SDS011;56315;-33.902;151.160;2022-08-03T01:48:45;1.33;;;0.47;;
44646;SDS011;56315;-33.902;151.160;2022-08-03T01:51:14;2.47;;;0.70;;
44646;SDS011;56315;-33.902;151.160;2022-08-03T01:53:44;1.42;;;0.60;;
44646;SDS011;56315;-33.902;151.160;2022-08-03T01:56:14;1.77;;;0.65;;
44646;SDS011;56315;-33.902;151.160;2022-08-03T01:58:43;4.53;;;1.00;;
44646;SDS011;56315;-33.902;151.160;2022-08-03T02:01:13;2.13;;;0.50;;
44646;SDS011;56315;-33.902;151.160;2022-08-03T02:03:42;1.40;;;0.50;;
44646;SDS011;56315;-33.902;151.160;2022-08-03T02:06:10;1.90;;;0.65;;
44646;SDS011;56315;-33.902;151.160;2022-08-03T02:08:39;3.55;;;1.40;;
44646;SDS011;56315;-33.902;151.160;2022-08-03T02:11:08;2.55;;;0.70;;
44646;SDS011;56315;-33.902;151.160;2022-08-03T02:13:36;1.65;;;0.57;;
44646;SDS011;56315;-33.902;151.160;2022-08-03T02:16:04;1.55;;;0.52;;
44646;SDS011;56315;-33.902;151.160;2022-08-03T02:18:33;2.10;;;0.70;;
44646;SDS011;56315;-33.902;151.160;2022-08-03T02:21:06;1.45;;;0.60;;
44646;SDS011;56315;-33.902;151.160;2022-08-03T02:23:36;2.55;;;0.57;;
44646;SDS011;56315;-33.902;151.160;2022-08-03T02:26:04;3.13;;;0.82;;
44646;SDS011;56315;-33.902;151.160;2022-08-03T02:28:40;2.75;;;0.70;;
44646;SDS011;56315;-33.902;151.160;2022-08-03T02:31:12;2.72;;;0.73;;
44646;SDS011;56315;-33.902;151.160;2022-08-03T02:33:42;2.15;;;0.90;;
44646;SDS011;56315;-33.902;151.160;2022-08-03T02:36:23;3.97;;;1.00;;
44646;SDS011;56315;-33.902;151.160;2022-08-03T02:38:53;2.13;;;0.50;;
44646;SDS011;56315;-33.902;151.160;2022-08-03T02:41:27;2.00;;;0.57;;
44646;SDS011;56315;-33.902;151.160;2022-08-03T02:44:03;2.67;;;0.65;;
44646;SDS011;56315;-33.902;151.160;2022-08-03T02:46:38;3.33;;;0.60;;
44646;SDS011;56315;-33.902;151.160;2022-08-03T02:49:09;1.95;;;0.80;;
44646;SDS011;56315;-33.902;151.160;2022-08-03T02:51:39;2.15;;;0.60;;
44646;SDS011;56315;-33.902;151.160;2022-08-03T02:54:07;1.35;;;0.77;;
44646;SDS011;56315;-33.902;151.160;2022-08-03T02:56:36;2.47;;;0.65;;
44646;SDS011;56315;-33.902;151.160;2022-08-03T02:59:04;1.88;;;0.70;;
44646;SDS011;56315;-33.902;151.160;2022-08-03T03:01:33;2.15;;;0.65;;
44646;SDS011;56315;-33.902;151.160;2022-08-03T03:04:02;2.58;;;0.82;;
44646;SDS011;56315;-33.902;151.160;2022-08-03T03:06:30;1.30;;;0.80;;
44646;SDS011;56315;-33.902;151.160;2022-08-03T03:08:58;1.85;;;0.80;;
44646;SDS011;56315;-33.902;151.160;2022-08-03T03:11:26;1.48;;;0.60;;
44646;SDS011;56315;-33.902;151.160;2022-08-03T03:13:55;4.45;;;1.58;;
44646;SDS011;56315;-33.902;151.160;2022-08-03T03:16:24;3.00;;;0.50;;
44646;SDS011;56315;-33.902;151.160;2022-08-03T03:18:52;2.55;;;0.50;;
44646;SDS011;56315;-33.902;151.160;2022-08-03T03:21:21;1.52;;;0.80;;
44646;SDS011;56315;-33.902;151.160;2022-08-03T03:23:50;2.33;;;0.80;;
44646;SDS011;56315;-33.902;151.160;2022-08-03T03:26:19;1.38;;;0.50;;
44646;SDS011;56315;-33.902;151.160;2022-08-03T03:28:46;1.45;;;0.70;;
44646;SDS011;56315;-33.902;151.160;2022-08-03T03:31:14;4.38;;;1.30;;
44646;SDS011;56315;-33.902;151.160;2022-08-03T03:33:42;2.83;;;0.80;;
44646;SDS011;56315;-33.902;151.160;2022-08-03T03:36:09;2.17;;;0.75;;
44646;SDS011;56315;-33.902;151.160;2022-08-03T03:38:37;2.25;;;0.70;;
44646;SDS011;56315;-33.902;151.160;2022-08-03T03:41:04;2.28;;;0.80;;
44646;SDS011;56315;-33.902;151.160;2022-08-03T03:43:32;2.28;;;0.60;;
44646;SDS011;56315;-33.902;151.160;2022-08-03T03:45:59;2.20;;;0.50;;
44646;SDS011;56315;-33.902;151.160;2022-08-03T03:48:27;4.30;;;0.82;;
44646;SDS011;56315;-33.902;151.160;2022-08-03T03:50:54;1.13;;;0.50;;
44646;SDS011;56315;-33.902;151.160;2022-08-03T03:53:22;2.15;;;0.50;;
44646;SDS011;56315;-33.902;151.160;2022-08-03T03:55:53;2.22;;;0.65;;
44646;SDS011;56315;-33.902;151.160;2022-08-03T03:58:20;1.60;;;0.50;;
44646;SDS011;56315;-33.902;151.160;2022-08-03T04:00:48;4.00;;;0.73;;
44646;SDS011;56315;-33.902;151.160;2022-08-03T04:03:15;3.30;;;0.57;;
44646;SDS011;56315;-33.902;151.160;2022-08-03T04:05:43;2.05;;;0.50;;
44646;SDS011;56315;-33.902;151.160;2022-08-03T04:08:28;3.65;;;1.05;;
44646;SDS011;56315;-33.902;151.160;2022-08-03T04:11:15;1.38;;;0.60;;
44646;SDS011;56315;-33.902;151.160;2022-08-03T04:16:26;2.13;;;0.70;;
44646;SDS011;56315;-33.902;151.160;2022-08-03T04:19:02;2.42;;;0.70;;
44646;SDS011;56315;-33.902;151.160;2022-08-03T04:21:32;1.00;;;0.50;;
44646;SDS011;56315;-33.902;151.160;2022-08-03T04:24:07;2.28;;;0.70;;
44646;SDS011;56315;-33.902;151.160;2022-08-03T04:26:38;2.05;;;0.60;;
44646;SDS011;56315;-33.902;151.160;2022-08-03T04:29:06;3.45;;;0.65;;
44646;SDS011;56315;-33.902;151.160;2022-08-03T04:31:36;2.55;;;0.68;;
44646;SDS011;56315;-33.902;151.160;2022-08-03T04:34:05;1.83;;;0.75;;
44646;SDS011;56315;-33.902;151.160;2022-08-03T04:36:38;2.45;;;0.60;;
44646;SDS011;56315;-33.902;151.160;2022-08-03T04:39:15;2.15;;;0.77;;
44646;SDS011;56315;-33.902;151.160;2022-08-03T04:41:55;4.00;;;0.77;;
44646;SDS011;56315;-33.902;151.160;2022-08-03T04:44:27;4.43;;;0.60;;
44646;SDS011;56315;-33.902;151.160;2022-08-03T04:46:55;2.20;;;0.50;;
44646;SDS011;56315;-33.902;151.160;2022-08-03T04:49:24;2.85;;;0.60;;
44646;SDS011;56315;-33.902;151.160;2022-08-03T04:51:54;2.08;;;0.47;;
44646;SDS011;56315;-33.902;151.160;2022-08-03T05:04:04;1.67;;;0.60;;
44646;SDS011;56315;-33.902;151.160;2022-08-03T05:09:53;3.05;;;0.60;;
44646;SDS011;56315;-33.902;151.160;2022-08-03T05:18:26;2.05;;;1.02;;
44646;SDS011;56315;-33.902;151.160;2022-08-03T05:24:15;5.95;;;1.83;;
44646;SDS011;56315;-33.902;151.160;2022-08-03T05:26:52;1.17;;;0.50;;
44646;SDS011;56315;-33.902;151.160;2022-08-03T05:29:19;3.10;;;1.15;;
44646;SDS011;56315;-33.902;151.160;2022-08-03T05:31:47;2.38;;;0.80;;
44646;SDS011;56315;-33.902;151.160;2022-08-03T05:34:14;3.33;;;1.20;;
44646;SDS011;56315;-33.902;151.160;2022-08-03T05:36:41;1.63;;;0.80;;
44646;SDS011;56315;-33.902;151.160;2022-08-03T05:39:08;2.67;;;0.95;;
44646;SDS011;56315;-33.902;151.160;2022-08-03T05:41:36;3.55;;;1.27;;
44646;SDS011;56315;-33.902;151.160;2022-08-03T05:44:03;5.07;;;1.30;;
44646;SDS011;56315;-33.902;151.160;2022-08-03T05:46:30;1.35;;;0.63;;
44646;SDS011;56315;-33.902;151.160;2022-08-03T05:48:58;3.78;;;1.35;;
44646;SDS011;56315;-33.902;151.160;2022-08-03T05:51:25;2.83;;;0.85;;
44646;SDS011;56315;-33.902;151.160;2022-08-03T05:53:53;3.28;;;1.38;;
44646;SDS011;56315;-33.902;151.160;2022-08-03T05:56:21;3.05;;;1.05;;
44646;SDS011;56315;-33.902;151.160;2022-08-03T05:58:52;3.50;;;0.77;;
44646;SDS011;56315;-33.902;151.160;2022-08-03T06:01:19;3.90;;;0.93;;
44646;SDS011;56315;-33.902;151.160;2022-08-03T06:03:47;5.20;;;0.80;;
44646;SDS011;56315;-33.902;151.160;2022-08-03T06:06:15;4.35;;;1.65;;
44646;SDS011;56315;-33.902;151.160;2022-08-03T06:08:43;4.35;;;1.38;;
44646;SDS011;56315;-33.902;151.160;2022-08-03T06:11:13;3.38;;;0.90;;
44646;SDS011;56315;-33.902;151.160;2022-08-03T06:13:41;1.77;;;0.60;;
44646;SDS011;56315;-33.902;151.160;2022-08-03T06:16:09;2.28;;;0.90;;
44646;SDS011;56315;-33.902;151.160;2022-08-03T06:18:36;3.53;;;0.68;;
44646;SDS011;56315;-33.902;151.160;2022-08-03T06:21:05;1.40;;;0.95;;
44646;SDS011;56315;-33.902;151.160;2022-08-03T06:23:32;2.80;;;0.93;;
44646;SDS011;56315;-33.902;151.160;2022-08-03T06:26:00;3.53;;;0.80;;
44646;SDS011;56315;-33.902;151.160;2022-08-03T06:28:28;1.33;;;0.55;;
44646;SDS011;56315;-33.902;151.160;2022-08-03T06:30:55;3.33;;;0.70;;
44646;SDS011;56315;-33.902;151.160;2022-08-03T06:33:22;1.85;;;0.50;;
44646;SDS011;56315;-33.902;151.160;2022-08-03T06:35:51;2.03;;;0.75;;
44646;SDS011;56315;-33.902;151.160;2022-08-03T06:38:18;2.60;;;0.55;;
44646;SDS011;56315;-33.902;151.160;2022-08-03T06:40:46;1.40;;;0.85;;
44646;SDS011;56315;-33.902;151.160;2022-08-03T06:43:14;1.75;;;0.63;;
44646;SDS011;56315;-33.902;151.160;2022-08-03T06:45:42;2.25;;;0.65;;
44646;SDS011;56315;-33.902;151.160;2022-08-03T06:48:09;4.15;;;0.70;;
44646;SDS011;56315;-33.902;151.160;2022-08-03T06:50:38;2.22;;;0.70;;
44646;SDS011;56315;-33.902;151.160;2022-08-03T06:53:07;1.67;;;0.60;;
44646;SDS011;56315;-33.902;151.160;2022-08-03T06:55:34;2.55;;;0.60;;
44646;SDS011;56315;-33.902;151.160;2022-08-03T06:58:02;1.80;;;0.52;;
44646;SDS011;56315;-33.902;151.160;2022-08-03T07:00:29;1.70;;;0.60;;
44646;SDS011;56315;-33.902;151.160;2022-08-03T07:02:57;2.03;;;0.55;;
44646;SDS011;56315;-33.902;151.160;2022-08-03T07:05:24;5.00;;;0.65;;
44646;SDS011;56315;-33.902;151.160;2022-08-03T07:07:55;2.63;;;0.60;;
44646;SDS011;56315;-33.902;151.160;2022-08-03T07:10:23;3.05;;;0.50;;
44646;SDS011;56315;-33.902;151.160;2022-08-03T07:12:52;1.08;;;0.57;;
44646;SDS011;56315;-33.902;151.160;2022-08-03T07:15:19;2.33;;;0.60;;
44646;SDS011;56315;-33.902;151.160;2022-08-03T07:17:47;2.42;;;0.75;;
44646;SDS011;56315;-33.902;151.160;2022-08-03T07:20:15;1.80;;;0.63;;
44646;SDS011;56315;-33.902;151.160;2022-08-03T07:22:43;3.03;;;0.80;;
44646;SDS011;56315;-33.902;151.160;2022-08-03T07:25:11;4.85;;;1.20;;
44646;SDS011;56315;-33.902;151.160;2022-08-03T07:27:41;4.03;;;1.02;;
44646;SDS011;56315;-33.902;151.160;2022-08-03T07:30:13;4.93;;;1.80;;
44646;SDS011;56315;-33.902;151.160;2022-08-03T07:32:41;6.95;;;2.30;;
44646;SDS011;56315;-33.902;151.160;2022-08-03T07:35:09;5.28;;;1.60;;
44646;SDS011;56315;-33.902;151.160;2022-08-03T07:37:36;7.70;;;2.08;;
44646;SDS011;56315;-33.902;151.160;2022-08-03T07:40:04;4.45;;;1.80;;
44646;SDS011;56315;-33.902;151.160;2022-08-03T07:42:32;6.50;;;1.92;;
44646;SDS011;56315;-33.902;151.160;2022-08-03T07:44:59;4.45;;;1.65;;
44646;SDS011;56315;-33.902;151.160;2022-08-03T07:47:28;4.78;;;1.85;;
44646;SDS011;56315;-33.902;151.160;2022-08-03T07:49:56;7.70;;;1.80;;
44646;SDS011;56315;-33.902;151.160;2022-08-03T07:52:23;5.93;;;2.28;;
44646;SDS011;56315;-33.902;151.160;2022-08-03T07:55:09;5.60;;;1.58;;
44646;SDS011;56315;-33.902;151.160;2022-08-03T07:57:36;6.65;;;1.85;;
44646;SDS011;56315;-33.902;151.160;2022-08-03T08:00:04;5.97;;;1.92;;
44646;SDS011;56315;-33.902;151.160;2022-08-03T08:02:37;4.35;;;1.50;;
44646;SDS011;56315;-33.902;151.160;2022-08-03T08:05:05;5.75;;;1.77;;
44646;SDS011;56315;-33.902;151.160;2022-08-03T08:07:35;5.75;;;1.70;;
44646;SDS011;56315;-33.902;151.160;2022-08-03T08:10:04;6.35;;;1.75;;
44646;SDS011;56315;-33.902;151.160;2022-08-03T08:12:32;6.85;;;1.70;;
44646;SDS011;56315;-33.902;151.160;2022-08-03T08:14:59;4.72;;;1.40;;
44646;SDS011;56315;-33.902;151.160;2022-08-03T08:17:27;5.43;;;1.90;;
44646;SDS011;56315;-33.902;151.160;2022-08-03T08:19:54;7.63;;;1.80;;
44646;SDS011;56315;-33.902;151.160;2022-08-03T08:22:22;5.45;;;2.28;;
44646;SDS011;56315;-33.902;151.160;2022-08-03T08:24:49;4.70;;;1.92;;
44646;SDS011;56315;-33.902;151.160;2022-08-03T08:27:17;6.53;;;1.70;;
44646;SDS011;56315;-33.902;151.160;2022-08-03T08:29:44;4.03;;;1.60;;
44646;SDS011;56315;-33.902;151.160;2022-08-03T08:32:11;3.00;;;1.67;;
44646;SDS011;56315;-33.902;151.160;2022-08-03T08:34:40;5.10;;;1.23;;
44646;SDS011;56315;-33.902;151.160;2022-08-03T08:37:08;3.53;;;1.80;;
44646;SDS011;56315;-33.902;151.160;2022-08-03T08:39:36;3.42;;;1.20;;
44646;SDS011;56315;-33.902;151.160;2022-08-03T08:42:03;3.53;;;1.38;;
44646;SDS011;56315;-33.902;151.160;2022-08-03T08:44:30;4.90;;;1.70;;
44646;SDS011;56315;-33.902;151.160;2022-08-03T08:46:58;2.25;;;1.00;;
44646;SDS011;56315;-33.902;151.160;2022-08-03T08:49:29;2.15;;;1.38;;
44646;SDS011;56315;-33.902;151.160;2022-08-03T08:52:01;2.50;;;1.33;;
44646;SDS011;56315;-33.902;151.160;2022-08-03T08:54:30;2.90;;;1.60;;
44646;SDS011;56315;-33.902;151.160;2022-08-03T08:57:01;4.43;;;1.33;;
44646;SDS011;56315;-33.902;151.160;2022-08-03T08:59:32;2.53;;;1.23;;
44646;SDS011;56315;-33.902;151.160;2022-08-03T09:02:00;3.00;;;1.33;;
44646;SDS011;56315;-33.902;151.160;2022-08-03T09:04:28;3.20;;;1.30;;
44646;SDS011;56315;-33.902;151.160;2022-08-03T09:06:56;3.47;;;1.60;;
44646;SDS011;56315;-33.902;151.160;2022-08-03T09:09:23;1.85;;;1.20;;
44646;SDS011;56315;-33.902;151.160;2022-08-03T09:11:51;2.83;;;1.50;;
44646;SDS011;56315;-33.902;151.160;2022-08-03T09:14:18;3.50;;;1.50;;
44646;SDS011;56315;-33.902;151.160;2022-08-03T09:16:58;3.47;;;1.48;;
44646;SDS011;56315;-33.902;151.160;2022-08-03T09:19:30;2.67;;;1.42;;
44646;SDS011;56315;-33.902;151.160;2022-08-03T09:24:36;2.08;;;1.30;;
44646;SDS011;56315;-33.902;151.160;2022-08-03T09:27:10;2.58;;;1.60;;
44646;SDS011;56315;-33.902;151.160;2022-08-03T09:29:38;3.33;;;1.45;;
44646;SDS011;56315;-33.902;151.160;2022-08-03T09:32:06;3.80;;;1.60;;
44646;SDS011;56315;-33.902;151.160;2022-08-03T09:34:35;3.88;;;1.90;;
44646;SDS011;56315;-33.902;151.160;2022-08-03T09:37:03;3.97;;;1.73;;
44646;SDS011;56315;-33.902;151.160;2022-08-03T09:39:40;4.32;;;2.00;;
44646;SDS011;56315;-33.902;151.160;2022-08-03T09:42:11;3.78;;;2.40;;
44646;SDS011;56315;-33.902;151.160;2022-08-03T09:44:47;4.53;;;1.98;;
44646;SDS011;56315;-33.902;151.160;2022-08-03T09:47:29;2.97;;;1.73;;
44646;SDS011;56315;-33.902;151.160;2022-08-03T09:49:59;2.38;;;1.38;;
44646;SDS011;56315;-33.902;151.160;2022-08-03T09:52:31;2.92;;;1.77;;
44646;SDS011;56315;-33.902;151.160;2022-08-03T09:55:10;4.35;;;1.98;;
44646;SDS011;56315;-33.902;151.160;2022-08-03T09:57:39;3.33;;;1.75;;
44646;SDS011;56315;-33.902;151.160;2022-08-03T10:00:14;3.38;;;1.60;;
44646;SDS011;56315;-33.902;151.160;2022-08-03T10:02:42;3.80;;;1.67;;
44646;SDS011;56315;-33.902;151.160;2022-08-03T10:05:11;2.55;;;1.60;;
44646;SDS011;56315;-33.902;151.160;2022-08-03T10:07:42;4.03;;;1.92;;
44646;SDS011;56315;-33.902;151.160;2022-08-03T10:10:15;4.63;;;1.52;;
44646;SDS011;56315;-33.902;151.160;2022-08-03T10:12:44;3.08;;;1.80;;
44646;SDS011;56315;-33.902;151.160;2022-08-03T10:15:13;4.10;;;1.75;;
44646;SDS011;56315;-33.902;151.160;2022-08-03T10:17:40;4.22;;;1.40;;
44646;SDS011;56315;-33.902;151.160;2022-08-03T10:20:08;2.60;;;1.60;;
44646;SDS011;56315;-33.902;151.160;2022-08-03T10:22:36;5.07;;;1.60;;
44646;SDS011;56315;-33.902;151.160;2022-08-03T10:25:17;2.88;;;1.52;;
44646;SDS011;56315;-33.902;151.160;2022-08-03T10:27:49;3.88;;;1.50;;
44646;SDS011;56315;-33.902;151.160;2022-08-03T10:30:18;4.93;;;1.23;;
44646;SDS011;56315;-33.902;151.160;2022-08-03T10:33:01;6.20;;;1.80;;
44646;SDS011;56315;-33.902;151.160;2022-08-03T10:35:34;1.75;;;1.13;;
44646;SDS011;56315;-33.902;151.160;2022-08-03T10:38:07;2.33;;;1.13;;
44646;SDS011;56315;-33.902;151.160;2022-08-03T10:40:37;3.60;;;1.27;;
44646;SDS011;56315;-33.902;151.160;2022-08-03T10:43:09;4.22;;;1.50;;
44646;SDS011;56315;-33.902;151.160;2022-08-03T10:45:43;2.38;;;1.25;;
44646;SDS011;56315;-33.902;151.160;2022-08-03T10:48:11;2.97;;;1.10;;
44646;SDS011;56315;-33.902;151.160;2022-08-03T10:50:39;3.58;;;1.27;;
44646;SDS011;56315;-33.902;151.160;2022-08-03T10:53:08;3.22;;;1.45;;
44646;SDS011;56315;-33.902;151.160;2022-08-03T10:55:40;3.20;;;1.70;;
44646;SDS011;56315;-33.902;151.160;2022-08-03T11:01:07;4.35;;;1.52;;
44646;SDS011;56315;-33.902;151.160;2022-08-03T11:06:22;2.83;;;1.33;;
44646;SDS011;56315;-33.902;151.160;2022-08-03T11:11:37;4.78;;;1.50;;
44646;SDS011;56315;-33.902;151.160;2022-08-03T11:14:12;3.22;;;1.58;;
44646;SDS011;56315;-33.902;151.160;2022-08-03T11:16:48;3.45;;;1.52;;
44646;SDS011;56315;-33.902;151.160;2022-08-03T11:19:22;2.33;;;1.35;;
44646;SDS011;56315;-33.902;151.160;2022-08-03T11:22:07;5.72;;;1.60;;
44646;SDS011;56315;-33.902;151.160;2022-08-03T11:29:59;5.32;;;1.45;;
44646;SDS011;56315;-33.902;151.160;2022-08-03T11:40:44;2.70;;;1.48;;
44646;SDS011;56315;-33.902;151.160;2022-08-03T11:48:28;2.47;;;1.15;;
44646;SDS011;56315;-33.902;151.160;2022-08-03T11:51:03;3.05;;;1.10;;
44646;SDS011;56315;-33.902;151.160;2022-08-03T11:53:32;3.63;;;1.27;;
44646;SDS011;56315;-33.902;151.160;2022-08-03T11:56:00;6.40;;;1.27;;
44646;SDS011;56315;-33.902;151.160;2022-08-03T11:58:28;2.90;;;1.20;;
44646;SDS011;56315;-33.902;151.160;2022-08-03T12:01:03;3.53;;;1.10;;
44646;SDS011;56315;-33.902;151.160;2022-08-03T12:03:34;2.88;;;1.10;;
44646;SDS011;56315;-33.902;151.160;2022-08-03T12:06:01;5.47;;;1.17;;
44646;SDS011;56315;-33.902;151.160;2022-08-03T12:08:34;4.00;;;1.10;;
44646;SDS011;56315;-33.902;151.160;2022-08-03T12:11:03;3.65;;;1.48;;
44646;SDS011;56315;-33.902;151.160;2022-08-03T12:13:41;5.50;;;1.77;;
44646;SDS011;56315;-33.902;151.160;2022-08-03T12:16:18;4.20;;;1.67;;
44646;SDS011;56315;-33.902;151.160;2022-08-03T12:18:54;4.50;;;1.30;;
44646;SDS011;56315;-33.902;151.160;2022-08-03T12:21:29;2.88;;;1.95;;
44646;SDS011;56315;-33.902;151.160;2022-08-03T12:23:58;4.28;;;1.58;;
44646;SDS011;56315;-33.902;151.160;2022-08-03T12:26:27;3.75;;;1.60;;
44646;SDS011;56315;-33.902;151.160;2022-08-03T12:29:07;3.25;;;1.40;;
44646;SDS011;56315;-33.902;151.160;2022-08-03T12:31:43;3.88;;;1.40;;
44646;SDS011;56315;-33.902;151.160;2022-08-03T12:34:10;6.70;;;1.23;;
44646;SDS011;56315;-33.902;151.160;2022-08-03T12:36:48;2.92;;;1.50;;
44646;SDS011;56315;-33.902;151.160;2022-08-03T12:39:17;4.15;;;1.30;;
44646;SDS011;56315;-33.902;151.160;2022-08-03T12:41:52;4.53;;;1.20;;
44646;SDS011;56315;-33.902;151.160;2022-08-03T12:44:30;3.72;;;1.20;;
44646;SDS011;56315;-33.902;151.160;2022-08-03T12:46:59;3.33;;;1.20;;
44646;SDS011;56315;-33.902;151.160;2022-08-03T12:49:27;2.55;;;1.33;;
44646;SDS011;56315;-33.902;151.160;2022-08-03T12:52:09;2.88;;;1.20;;
44646;SDS011;56315;-33.902;151.160;2022-08-03T12:54:36;5.30;;;1.48;;
44646;SDS011;56315;-33.902;151.160;2022-08-03T12:59:36;3.03;;;1.15;;
44646;SDS011;56315;-33.902;151.160;2022-08-03T13:02:15;4.43;;;1.30;;
44646;SDS011;56315;-33.902;151.160;2022-08-03T13:04:44;3.30;;;1.60;;
44646;SDS011;56315;-33.902;151.160;2022-08-03T13:07:13;3.38;;;1.38;;
44646;SDS011;56315;-33.902;151.160;2022-08-03T13:09:42;2.25;;;1.38;;
44646;SDS011;56315;-33.902;151.160;2022-08-03T13:12:15;2.55;;;1.40;;
44646;SDS011;56315;-33.902;151.160;2022-08-03T13:14:45;3.13;;;1.57;;
44646;SDS011;56315;-33.902;151.160;2022-08-03T13:17:14;3.47;;;1.50;;
44646;SDS011;56315;-33.902;151.160;2022-08-03T13:19:41;4.18;;;1.92;;
44646;SDS011;56315;-33.902;151.160;2022-08-03T13:22:11;4.00;;;1.83;;
44646;SDS011;56315;-33.902;151.160;2022-08-03T13:24:43;4.15;;;2.30;;
44646;SDS011;56315;-33.902;151.160;2022-08-03T13:27:11;3.67;;;2.03;;
44646;SDS011;56315;-33.902;151.160;2022-08-03T13:29:39;5.43;;;1.88;;
44646;SDS011;56315;-33.902;151.160;2022-08-03T13:32:08;3.80;;;1.70;;
44646;SDS011;56315;-33.902;151.160;2022-08-03T13:34:36;4.65;;;1.83;;
44646;SDS011;56315;-33.902;151.160;2022-08-03T13:37:03;5.63;;;2.05;;
44646;SDS011;56315;-33.902;151.160;2022-08-03T13:39:31;4.38;;;1.80;;
44646;SDS011;56315;-33.902;151.160;2022-08-03T13:41:58;4.05;;;1.77;;
44646;SDS011;56315;-33.902;151.160;2022-08-03T13:44:26;2.78;;;2.10;;
44646;SDS011;56315;-33.902;151.160;2022-08-03T13:46:53;3.72;;;1.90;;
44646;SDS011;56315;-33.902;151.160;2022-08-03T13:49:20;2.90;;;2.40;;
44646;SDS011;56315;-33.902;151.160;2022-08-03T13:51:48;5.28;;;2.13;;
44646;SDS011;56315;-33.902;151.160;2022-08-03T13:54:15;3.75;;;2.20;;
44646;SDS011;56315;-33.902;151.160;2022-08-03T13:56:44;4.47;;;2.00;;
44646;SDS011;56315;-33.902;151.160;2022-08-03T13:59:20;4.22;;;1.90;;
44646;SDS011;56315;-33.902;151.160;2022-08-03T14:01:49;3.20;;;1.45;;
44646;SDS011;56315;-33.902;151.160;2022-08-03T14:04:17;3.55;;;1.55;;
44646;SDS011;56315;-33.902;151.160;2022-08-03T14:06:45;5.50;;;2.15;;
44646;SDS011;56315;-33.902;151.160;2022-08-03T14:09:14;4.03;;;2.08;;
44646;SDS011;56315;-33.902;151.160;2022-08-03T14:11:42;3.70;;;2.45;;
44646;SDS011;56315;-33.902;151.160;2022-08-03T14:14:10;4.15;;;1.90;;
44646;SDS011;56315;-33.902;151.160;2022-08-03T14:16:38;3.40;;;1.70;;
44646;SDS011;56315;-33.902;151.160;2022-08-03T14:19:06;6.07;;;2.05;;
44646;SDS011;56315;-33.902;151.160;2022-08-03T14:21:33;6.93;;;2.47;;
44646;SDS011;56315;-33.902;151.160;2022-08-03T14:24:01;3.67;;;2.33;;
44646;SDS011;56315;-33.902;151.160;2022-08-03T14:26:28;4.90;;;2.45;;
44646;SDS011;56315;-33.902;151.160;2022-08-03T14:28:56;8.80;;;2.03;;
44646;SDS011;56315;-33.902;151.160;2022-08-03T14:31:23;3.75;;;1.60;;
44646;SDS011;56315;-33.902;151.160;2022-08-03T14:33:51;4.88;;;1.63;;
44646;SDS011;56315;-33.902;151.160;2022-08-03T14:36:18;3.08;;;1.50;;
44646;SDS011;56315;-33.902;151.160;2022-08-03T14:38:46;5.03;;;1.73;;
44646;SDS011;56315;-33.902;151.160;2022-08-03T14:41:13;5.45;;;1.90;;
44646;SDS011;56315;-33.902;151.160;2022-08-03T14:43:41;2.90;;;1.77;;
44646;SDS011;56315;-33.902;151.160;2022-08-03T14:46:08;1.88;;;1.33;;
44646;SDS011;56315;-33.902;151.160;2022-08-03T14:48:35;3.47;;;1.90;;
44646;SDS011;56315;-33.902;151.160;2022-08-03T14:51:03;4.95;;;2.28;;
44646;SDS011;56315;-33.902;151.160;2022-08-03T14:53:31;5.70;;;2.20;;
44646;SDS011;56315;-33.902;151.160;2022-08-03T14:55:59;5.63;;;2.22;;
44646;SDS011;56315;-33.902;151.160;2022-08-03T14:58:26;3.30;;;1.75;;
44646;SDS011;56315;-33.902;151.160;2022-08-03T15:00:54;5.00;;;2.03;;
44646;SDS011;56315;-33.902;151.160;2022-08-03T15:03:21;3.40;;;2.00;;
44646;SDS011;56315;-33.902;151.160;2022-08-03T15:05:51;5.22;;;2.47;;
44646;SDS011;56315;-33.902;151.160;2022-08-03T15:08:19;4.32;;;2.10;;
44646;SDS011;56315;-33.902;151.160;2022-08-03T15:10:47;3.15;;;1.85;;
44646;SDS011;56315;-33.902;151.160;2022-08-03T15:13:15;2.35;;;1.35;;
44646;SDS011;56315;-33.902;151.160;2022-08-03T15:15:43;5.25;;;2.00;;
44646;SDS011;56315;-33.902;151.160;2022-08-03T15:18:12;6.53;;;2.00;;
44646;SDS011;56315;-33.902;151.160;2022-08-03T15:20:39;2.88;;;2.03;;
44646;SDS011;56315;-33.902;151.160;2022-08-03T15:23:06;4.53;;;2.13;;
44646;SDS011;56315;-33.902;151.160;2022-08-03T15:25:34;5.28;;;2.42;;
44646;SDS011;56315;-33.902;151.160;2022-08-03T15:28:01;4.15;;;2.03;;
44646;SDS011;56315;-33.902;151.160;2022-08-03T15:30:28;5.18;;;2.05;;
44646;SDS011;56315;-33.902;151.160;2022-08-03T15:32:59;4.03;;;2.40;;
44646;SDS011;56315;-33.902;151.160;2022-08-03T15:35:27;3.25;;;2.00;;
44646;SDS011;56315;-33.902;151.160;2022-08-03T15:37:54;4.38;;;2.20;;